sensor_id;sensor_type;location;lat;lon;timestamp;temperature;humidity
42261;DHT22;27926;48.062;7.474;2023-01-16T00:01:28;6.60;99.90
42261;DHT22;27926;48.062;7.474;2023-01-16T00:03:52;7.00;99.90
42261;DHT22;27926;48.062;7.474;2023-01-16T00:06:17;6.30;99.90
42261;DHT22;27926;48.062;7.474;2023-01-16T00:08:42;5.40;99.90
42261;DHT22;27926;48.062;7.474;2023-01-16T00:11:06;5.30;99.90
42261;DHT22;27926;48.062;7.474;2023-01-16T00:13:31;6.40;99.90
42261;DHT22;27926;48.062;7.474;2023-01-16T00:15:56;7.10;99.90
42261;DHT22;27926;48.062;7.474;2023-01-16T00:18:20;5.80;99.90
42261;DHT22;27926;48.062;7.474;2023-01-16T00:20:45;5.00;99.90
42261;DHT22;27926;48.062;7.474;2023-01-16T00:23:10;6.60;99.90
42261;DHT22;27926;48.062;7.474;2023-01-16T00:25:38;6.90;99.90
42261;DHT22;27926;48.062;7.474;2023-01-16T00:28:02;6.70;99.90
42261;DHT22;27926;48.062;7.474;2023-01-16T00:30:27;4.90;99.90
42261;DHT22;27926;48.062;7.474;2023-01-16T00:32:51;6.40;99.90
42261;DHT22;27926;48.062;7.474;2023-01-16T00:35:16;6.10;99.90
42261;DHT22;27926;48.062;7.474;2023-01-16T00:37:40;4.70;99.90
42261;DHT22;27926;48.062;7.474;2023-01-16T00:40:05;6.50;99.90
42261;DHT22;27926;48.062;7.474;2023-01-16T00:42:29;4.70;99.90
42261;DHT22;27926;48.062;7.474;2023-01-16T00:44:54;6.10;99.90
42261;DHT22;27926;48.062;7.474;2023-01-16T00:47:18;6.40;99.90
42261;DHT22;27926;48.062;7.474;2023-01-16T00:49:43;6.50;99.90
42261;DHT22;27926;48.062;7.474;2023-01-16T00:52:07;5.10;99.90
42261;DHT22;27926;48.062;7.474;2023-01-16T00:54:34;5.90;99.90
42261;DHT22;27926;48.062;7.474;2023-01-16T00:56:59;4.60;99.90
42261;DHT22;27926;48.062;7.474;2023-01-16T00:59:23;6.30;99.90
42261;DHT22;27926;48.062;7.474;2023-01-16T01:01:48;4.70;99.90
42261;DHT22;27926;48.062;7.474;2023-01-16T01:04:12;6.30;99.90
42261;DHT22;27926;48.062;7.474;2023-01-16T01:06:37;6.40;99.90
42261;DHT22;27926;48.062;7.474;2023-01-16T01:09:01;5.80;99.90
42261;DHT22;27926;48.062;7.474;2023-01-16T01:11:26;5.40;99.90
42261;DHT22;27926;48.062;7.474;2023-01-16T01:13:50;6.60;99.90
42261;DHT22;27926;48.062;7.474;2023-01-16T01:16:15;6.20;99.90
42261;DHT22;27926;48.062;7.474;2023-01-16T01:18:40;4.40;99.90
42261;DHT22;27926;48.062;7.474;2023-01-16T01:21:04;6.50;99.90
42261;DHT22;27926;48.062;7.474;2023-01-16T01:23:29;5.70;99.90
42261;DHT22;27926;48.062;7.474;2023-01-16T01:25:54;5.40;99.90
42261;DHT22;27926;48.062;7.474;2023-01-16T01:28:19;4.30;99.90
42261;DHT22;27926;48.062;7.474;2023-01-16T01:30:43;6.40;99.90
42261;DHT22;27926;48.062;7.474;2023-01-16T01:33:08;5.60;99.90
42261;DHT22;27926;48.062;7.474;2023-01-16T01:35:34;6.20;99.90
42261;DHT22;27926;48.062;7.474;2023-01-16T01:37:59;4.90;99.90
42261;DHT22;27926;48.062;7.474;2023-01-16T01:40:23;4.80;99.90
42261;DHT22;27926;48.062;7.474;2023-01-16T01:42:48;5.70;99.90
42261;DHT22;27926;48.062;7.474;2023-01-16T01:45:23;6.20;99.90
42261;DHT22;27926;48.062;7.474;2023-01-16T01:48:00;4.30;99.90
42261;DHT22;27926;48.062;7.474;2023-01-16T01:50:37;4.30;99.90
42261;DHT22;27926;48.062;7.474;2023-01-16T01:53:07;4.30;99.90
42261;DHT22;27926;48.062;7.474;2023-01-16T01:55:33;4.30;99.90
42261;DHT22;27926;48.062;7.474;2023-01-16T01:57:58;4.70;99.90
42261;DHT22;27926;48.062;7.474;2023-01-16T02:00:24;4.70;99.90
42261;DHT22;27926;48.062;7.474;2023-01-16T02:05:34;4.20;99.90
42261;DHT22;27926;48.062;7.474;2023-01-16T02:08:00;4.20;99.90
42261;DHT22;27926;48.062;7.474;2023-01-16T02:10:37;4.20;99.90
42261;DHT22;27926;48.062;7.474;2023-01-16T02:13:02;4.20;99.90
42261;DHT22;27926;48.062;7.474;2023-01-16T02:15:27;6.00;99.90
42261;DHT22;27926;48.062;7.474;2023-01-16T02:17:52;4.10;99.90
42261;DHT22;27926;48.062;7.474;2023-01-16T02:21:00;4.50;99.90
42261;DHT22;27926;48.062;7.474;2023-01-16T02:23:38;4.10;99.90
42261;DHT22;27926;48.062;7.474;2023-01-16T02:34:31;4.00;99.90
42261;DHT22;27926;48.062;7.474;2023-01-16T02:52:21;4.10;99.90
42261;DHT22;27926;48.062;7.474;2023-01-16T02:57:12;4.00;99.90
42261;DHT22;27926;48.062;7.474;2023-01-16T02:59:39;4.80;99.90
42261;DHT22;27926;48.062;7.474;2023-01-16T03:02:04;4.80;99.90
42261;DHT22;27926;48.062;7.474;2023-01-16T03:09:41;4.00;99.90
42261;DHT22;27926;48.062;7.474;2023-01-16T03:12:21;4.10;99.90
42261;DHT22;27926;48.062;7.474;2023-01-16T03:14:53;4.10;99.90
42261;DHT22;27926;48.062;7.474;2023-01-16T03:17:22;4.20;99.90
42261;DHT22;27926;48.062;7.474;2023-01-16T03:19:56;5.00;99.90
42261;DHT22;27926;48.062;7.474;2023-01-16T03:25:10;4.60;99.90
42261;DHT22;27926;48.062;7.474;2023-01-16T03:32:36;4.50;99.90
42261;DHT22;27926;48.062;7.474;2023-01-16T03:37:44;4.50;99.90
42261;DHT22;27926;48.062;7.474;2023-01-16T03:40:14;4.50;99.90
42261;DHT22;27926;48.062;7.474;2023-01-16T03:45:16;5.90;99.90
42261;DHT22;27926;48.062;7.474;2023-01-16T03:47:46;4.30;99.90
42261;DHT22;27926;48.062;7.474;2023-01-16T03:50:13;5.20;99.90
42261;DHT22;27926;48.062;7.474;2023-01-16T03:52:39;4.20;99.90
42261;DHT22;27926;48.062;7.474;2023-01-16T03:55:16;5.40;99.90
42261;DHT22;27926;48.062;7.474;2023-01-16T03:57:48;4.20;99.90
42261;DHT22;27926;48.062;7.474;2023-01-16T04:00:13;4.20;99.90
42261;DHT22;27926;48.062;7.474;2023-01-16T04:02:41;4.20;99.90
42261;DHT22;27926;48.062;7.474;2023-01-16T04:10:12;4.40;99.90
42261;DHT22;27926;48.062;7.474;2023-01-16T04:12:40;4.40;99.90
42261;DHT22;27926;48.062;7.474;2023-01-16T04:15:06;5.60;99.90
42261;DHT22;27926;48.062;7.474;2023-01-16T04:17:31;4.40;99.90
42261;DHT22;27926;48.062;7.474;2023-01-16T04:19:57;5.60;99.90
42261;DHT22;27926;48.062;7.474;2023-01-16T04:22:23;4.40;99.90
42261;DHT22;27926;48.062;7.474;2023-01-16T04:24:48;4.30;99.90
42261;DHT22;27926;48.062;7.474;2023-01-16T04:27:13;5.30;99.90
42261;DHT22;27926;48.062;7.474;2023-01-16T04:29:38;5.70;99.90
42261;DHT22;27926;48.062;7.474;2023-01-16T04:32:02;4.20;99.90
42261;DHT22;27926;48.062;7.474;2023-01-16T04:34:27;4.10;99.90
42261;DHT22;27926;48.062;7.474;2023-01-16T04:36:51;4.10;99.90
42261;DHT22;27926;48.062;7.474;2023-01-16T04:39:16;5.10;99.90
42261;DHT22;27926;48.062;7.474;2023-01-16T04:41:40;4.00;99.90
42261;DHT22;27926;48.062;7.474;2023-01-16T04:44:06;4.40;99.90
42261;DHT22;27926;48.062;7.474;2023-01-16T04:46:31;4.30;99.90
42261;DHT22;27926;48.062;7.474;2023-01-16T04:48:56;4.50;99.90
42261;DHT22;27926;48.062;7.474;2023-01-16T04:51:21;6.60;99.90
42261;DHT22;27926;48.062;7.474;2023-01-16T04:53:45;6.10;99.90
42261;DHT22;27926;48.062;7.474;2023-01-16T04:56:10;5.30;99.90
42261;DHT22;27926;48.062;7.474;2023-01-16T04:58:35;6.20;99.90
42261;DHT22;27926;48.062;7.474;2023-01-16T05:01:00;4.70;99.90
42261;DHT22;27926;48.062;7.474;2023-01-16T05:03:24;6.30;99.90
42261;DHT22;27926;48.062;7.474;2023-01-16T05:05:49;4.70;99.90
42261;DHT22;27926;48.062;7.474;2023-01-16T05:08:13;6.00;99.90
42261;DHT22;27926;48.062;7.474;2023-01-16T05:10:41;6.50;99.90
42261;DHT22;27926;48.062;7.474;2023-01-16T05:13:05;6.40;99.90
42261;DHT22;27926;48.062;7.474;2023-01-16T05:15:30;4.80;99.90
42261;DHT22;27926;48.062;7.474;2023-01-16T05:17:54;4.60;99.90
42261;DHT22;27926;48.062;7.474;2023-01-16T05:20:19;6.30;99.90
42261;DHT22;27926;48.062;7.474;2023-01-16T05:22:43;5.60;99.90
42261;DHT22;27926;48.062;7.474;2023-01-16T05:25:08;6.10;99.90
42261;DHT22;27926;48.062;7.474;2023-01-16T05:27:32;4.40;99.90
42261;DHT22;27926;48.062;7.474;2023-01-16T05:29:57;5.20;99.90
42261;DHT22;27926;48.062;7.474;2023-01-16T05:32:21;5.20;99.90
42261;DHT22;27926;48.062;7.474;2023-01-16T05:34:46;5.30;99.90
42261;DHT22;27926;48.062;7.474;2023-01-16T05:37:10;5.80;99.90
42261;DHT22;27926;48.062;7.474;2023-01-16T05:39:35;6.20;99.90
42261;DHT22;27926;48.062;7.474;2023-01-16T05:41:59;5.40;99.90
42261;DHT22;27926;48.062;7.474;2023-01-16T05:44:23;6.00;99.90
42261;DHT22;27926;48.062;7.474;2023-01-16T05:46:48;4.80;99.90
42261;DHT22;27926;48.062;7.474;2023-01-16T05:49:15;6.40;99.90
42261;DHT22;27926;48.062;7.474;2023-01-16T05:51:39;6.00;99.90
42261;DHT22;27926;48.062;7.474;2023-01-16T05:54:04;6.40;99.90
42261;DHT22;27926;48.062;7.474;2023-01-16T05:56:28;4.60;99.90
42261;DHT22;27926;48.062;7.474;2023-01-16T05:58:53;5.70;99.90
42261;DHT22;27926;48.062;7.474;2023-01-16T06:01:17;4.80;99.90
42261;DHT22;27926;48.062;7.474;2023-01-16T06:03:42;4.50;99.90
42261;DHT22;27926;48.062;7.474;2023-01-16T06:06:06;4.50;99.90
42261;DHT22;27926;48.062;7.474;2023-01-16T06:08:31;4.50;99.90
42261;DHT22;27926;48.062;7.474;2023-01-16T06:10:56;4.50;99.90
42261;DHT22;27926;48.062;7.474;2023-01-16T06:13:21;4.50;99.90
42261;DHT22;27926;48.062;7.474;2023-01-16T06:15:45;4.90;99.90
42261;DHT22;27926;48.062;7.474;2023-01-16T06:18:10;4.90;99.90
42261;DHT22;27926;48.062;7.474;2023-01-16T06:20:35;6.00;99.90
42261;DHT22;27926;48.062;7.474;2023-01-16T06:22:59;6.80;99.90
42261;DHT22;27926;48.062;7.474;2023-01-16T06:25:24;6.30;99.90
42261;DHT22;27926;48.062;7.474;2023-01-16T06:27:49;5.50;99.90
42261;DHT22;27926;48.062;7.474;2023-01-16T06:30:14;6.50;99.90
42261;DHT22;27926;48.062;7.474;2023-01-16T06:32:38;4.70;99.90
42261;DHT22;27926;48.062;7.474;2023-01-16T06:35:03;4.80;99.90
42261;DHT22;27926;48.062;7.474;2023-01-16T06:37:28;4.80;99.90
42261;DHT22;27926;48.062;7.474;2023-01-16T06:39:52;6.70;99.90
42261;DHT22;27926;48.062;7.474;2023-01-16T06:42:17;6.30;99.90
42261;DHT22;27926;48.062;7.474;2023-01-16T06:44:41;6.30;99.90
42261;DHT22;27926;48.062;7.474;2023-01-16T06:47:06;5.10;99.90
42261;DHT22;27926;48.062;7.474;2023-01-16T06:49:30;4.80;99.90
42261;DHT22;27926;48.062;7.474;2023-01-16T06:51:55;5.60;99.90
42261;DHT22;27926;48.062;7.474;2023-01-16T06:54:19;5.60;99.90
42261;DHT22;27926;48.062;7.474;2023-01-16T06:56:44;5.20;99.90
42261;DHT22;27926;48.062;7.474;2023-01-16T06:59:09;4.90;99.90
42261;DHT22;27926;48.062;7.474;2023-01-16T07:01:33;4.50;99.90
42261;DHT22;27926;48.062;7.474;2023-01-16T07:03:58;4.90;99.90
42261;DHT22;27926;48.062;7.474;2023-01-16T07:06:22;5.40;99.90
42261;DHT22;27926;48.062;7.474;2023-01-16T07:08:46;5.00;99.90
42261;DHT22;27926;48.062;7.474;2023-01-16T07:11:15;4.30;99.90
42261;DHT22;27926;48.062;7.474;2023-01-16T07:13:39;4.30;99.90
42261;DHT22;27926;48.062;7.474;2023-01-16T07:16:04;5.90;99.90
42261;DHT22;27926;48.062;7.474;2023-01-16T07:18:47;4.20;99.90
42261;DHT22;27926;48.062;7.474;2023-01-16T07:21:30;4.20;99.90
42261;DHT22;27926;48.062;7.474;2023-01-16T07:24:21;4.20;99.90
42261;DHT22;27926;48.062;7.474;2023-01-16T07:26:48;4.10;99.90
42261;DHT22;27926;48.062;7.474;2023-01-16T07:29:14;4.50;99.90
42261;DHT22;27926;48.062;7.474;2023-01-16T07:31:38;5.90;99.90
42261;DHT22;27926;48.062;7.474;2023-01-16T07:34:04;5.50;99.90
42261;DHT22;27926;48.062;7.474;2023-01-16T07:36:28;6.10;99.90
42261;DHT22;27926;48.062;7.474;2023-01-16T07:38:53;5.30;99.90
42261;DHT22;27926;48.062;7.474;2023-01-16T07:41:17;4.30;99.90
42261;DHT22;27926;48.062;7.474;2023-01-16T07:43:42;4.60;99.90
42261;DHT22;27926;48.062;7.474;2023-01-16T07:46:06;5.80;99.90
42261;DHT22;27926;48.062;7.474;2023-01-16T07:48:31;5.90;99.90
42261;DHT22;27926;48.062;7.474;2023-01-16T07:50:56;4.80;99.90
42261;DHT22;27926;48.062;7.474;2023-01-16T07:53:21;4.80;99.90
42261;DHT22;27926;48.062;7.474;2023-01-16T07:55:47;5.40;99.90
42261;DHT22;27926;48.062;7.474;2023-01-16T07:58:12;5.30;99.90
42261;DHT22;27926;48.062;7.474;2023-01-16T08:00:37;5.50;99.90
42261;DHT22;27926;48.062;7.474;2023-01-16T08:03:01;6.30;99.90
42261;DHT22;27926;48.062;7.474;2023-01-16T08:05:26;5.70;99.90
42261;DHT22;27926;48.062;7.474;2023-01-16T08:07:51;5.80;99.90
42261;DHT22;27926;48.062;7.474;2023-01-16T08:10:16;6.60;99.90
42261;DHT22;27926;48.062;7.474;2023-01-16T08:12:40;6.10;99.90
42261;DHT22;27926;48.062;7.474;2023-01-16T08:15:05;5.60;99.90
42261;DHT22;27926;48.062;7.474;2023-01-16T08:17:30;5.40;99.90
42261;DHT22;27926;48.062;7.474;2023-01-16T08:19:54;5.50;99.90
42261;DHT22;27926;48.062;7.474;2023-01-16T08:22:19;5.80;99.90
42261;DHT22;27926;48.062;7.474;2023-01-16T08:24:43;6.40;99.90
42261;DHT22;27926;48.062;7.474;2023-01-16T08:27:08;5.60;99.90
42261;DHT22;27926;48.062;7.474;2023-01-16T08:29:32;7.90;99.90
42261;DHT22;27926;48.062;7.474;2023-01-16T08:31:57;5.50;99.90
42261;DHT22;27926;48.062;7.474;2023-01-16T08:34:21;7.00;99.90
42261;DHT22;27926;48.062;7.474;2023-01-16T08:36:45;5.70;99.90
42261;DHT22;27926;48.062;7.474;2023-01-16T08:39:10;6.40;99.90
42261;DHT22;27926;48.062;7.474;2023-01-16T08:41:35;5.40;99.90
42261;DHT22;27926;48.062;7.474;2023-01-16T08:44:18;5.70;99.90
42261;DHT22;27926;48.062;7.474;2023-01-16T08:47:02;5.40;99.90
42261;DHT22;27926;48.062;7.474;2023-01-16T08:49:46;6.10;99.90
42261;DHT22;27926;48.062;7.474;2023-01-16T08:52:29;5.40;99.90
42261;DHT22;27926;48.062;7.474;2023-01-16T08:54:54;5.50;99.90
42261;DHT22;27926;48.062;7.474;2023-01-16T08:57:19;5.70;99.90
42261;DHT22;27926;48.062;7.474;2023-01-16T08:59:43;5.70;99.90
42261;DHT22;27926;48.062;7.474;2023-01-16T09:02:07;6.60;99.90
42261;DHT22;27926;48.062;7.474;2023-01-16T09:04:34;6.10;99.90
42261;DHT22;27926;48.062;7.474;2023-01-16T09:07:02;5.40;99.90
42261;DHT22;27926;48.062;7.474;2023-01-16T09:09:26;6.30;99.90
42261;DHT22;27926;48.062;7.474;2023-01-16T09:11:55;5.40;99.90
42261;DHT22;27926;48.062;7.474;2023-01-16T09:14:45;5.50;99.90
42261;DHT22;27926;48.062;7.474;2023-01-16T09:17:09;5.50;99.90
42261;DHT22;27926;48.062;7.474;2023-01-16T09:19:34;6.00;99.90
42261;DHT22;27926;48.062;7.474;2023-01-16T09:21:59;5.60;99.90
42261;DHT22;27926;48.062;7.474;2023-01-16T09:24:23;6.70;99.90
42261;DHT22;27926;48.062;7.474;2023-01-16T09:26:49;6.90;99.90
42261;DHT22;27926;48.062;7.474;2023-01-16T09:29:13;5.60;99.90
42261;DHT22;27926;48.062;7.474;2023-01-16T09:31:38;6.90;99.90
42261;DHT22;27926;48.062;7.474;2023-01-16T09:34:02;6.40;99.90
42261;DHT22;27926;48.062;7.474;2023-01-16T09:36:27;5.80;99.90
42261;DHT22;27926;48.062;7.474;2023-01-16T09:38:52;6.60;99.90
42261;DHT22;27926;48.062;7.474;2023-01-16T09:41:17;6.10;99.90
42261;DHT22;27926;48.062;7.474;2023-01-16T09:44:03;6.10;99.90
42261;DHT22;27926;48.062;7.474;2023-01-16T09:46:30;5.90;99.90
42261;DHT22;27926;48.062;7.474;2023-01-16T09:49:04;6.70;99.90
42261;DHT22;27926;48.062;7.474;2023-01-16T09:51:38;6.00;99.90
42261;DHT22;27926;48.062;7.474;2023-01-16T09:54:09;6.00;99.90
42261;DHT22;27926;48.062;7.474;2023-01-16T09:56:55;6.00;99.90
42261;DHT22;27926;48.062;7.474;2023-01-16T09:59:42;6.20;99.90
42261;DHT22;27926;48.062;7.474;2023-01-16T10:04:35;6.10;99.90
42261;DHT22;27926;48.062;7.474;2023-01-16T10:07:22;6.60;99.90
42261;DHT22;27926;48.062;7.474;2023-01-16T10:12:14;6.40;99.90
42261;DHT22;27926;48.062;7.474;2023-01-16T10:19:44;6.00;99.90
42261;DHT22;27926;48.062;7.474;2023-01-16T10:24:40;6.00;99.90
42261;DHT22;27926;48.062;7.474;2023-01-16T10:27:18;6.70;99.90
42261;DHT22;27926;48.062;7.474;2023-01-16T10:29:50;6.00;99.90
42261;DHT22;27926;48.062;7.474;2023-01-16T10:35:04;6.40;99.90
42261;DHT22;27926;48.062;7.474;2023-01-16T10:37:29;7.20;99.90
42261;DHT22;27926;48.062;7.474;2023-01-16T10:39:53;6.20;99.90
42261;DHT22;27926;48.062;7.474;2023-01-16T10:42:21;6.20;99.90
42261;DHT22;27926;48.062;7.474;2023-01-16T10:45:12;6.20;99.90
42261;DHT22;27926;48.062;7.474;2023-01-16T10:47:55;6.30;99.90
42261;DHT22;27926;48.062;7.474;2023-01-16T10:50:38;6.30;99.90
42261;DHT22;27926;48.062;7.474;2023-01-16T10:53:06;6.40;99.90
42261;DHT22;27926;48.062;7.474;2023-01-16T10:55:32;6.40;99.90
42261;DHT22;27926;48.062;7.474;2023-01-16T10:57:58;6.40;99.90
42261;DHT22;27926;48.062;7.474;2023-01-16T11:00:46;6.50;99.90
42261;DHT22;27926;48.062;7.474;2023-01-16T11:05:44;6.70;99.90
42261;DHT22;27926;48.062;7.474;2023-01-16T11:08:16;7.20;99.90
42261;DHT22;27926;48.062;7.474;2023-01-16T11:10:42;6.90;99.90
42261;DHT22;27926;48.062;7.474;2023-01-16T11:13:20;7.00;99.90
42261;DHT22;27926;48.062;7.474;2023-01-16T11:16:16;7.10;99.90
42261;DHT22;27926;48.062;7.474;2023-01-16T11:21:44;7.30;99.90
42261;DHT22;27926;48.062;7.474;2023-01-16T11:24:16;7.40;99.90
42261;DHT22;27926;48.062;7.474;2023-01-16T11:26:42;7.40;99.90
42261;DHT22;27926;48.062;7.474;2023-01-16T11:29:12;7.40;99.90
42261;DHT22;27926;48.062;7.474;2023-01-16T11:31:39;7.40;99.90
42261;DHT22;27926;48.062;7.474;2023-01-16T11:34:09;8.40;99.90
42261;DHT22;27926;48.062;7.474;2023-01-16T11:36:35;7.30;99.90
42261;DHT22;27926;48.062;7.474;2023-01-16T11:39:00;7.70;99.90
42261;DHT22;27926;48.062;7.474;2023-01-16T11:41:29;7.40;99.90
42261;DHT22;27926;48.062;7.474;2023-01-16T11:46:57;7.60;99.90
42261;DHT22;27926;48.062;7.474;2023-01-16T11:49:24;7.70;99.90
42261;DHT22;27926;48.062;7.474;2023-01-16T11:51:49;7.80;99.90
42261;DHT22;27926;48.062;7.474;2023-01-16T11:54:17;8.50;99.90
42261;DHT22;27926;48.062;7.474;2023-01-16T11:56:44;7.90;99.90
42261;DHT22;27926;48.062;7.474;2023-01-16T12:04:29;7.90;99.90
42261;DHT22;27926;48.062;7.474;2023-01-16T12:07:01;7.90;99.90
42261;DHT22;27926;48.062;7.474;2023-01-16T12:09:34;7.70;99.90
42261;DHT22;27926;48.062;7.474;2023-01-16T12:15:08;7.50;99.90
42261;DHT22;27926;48.062;7.474;2023-01-16T12:17:47;7.40;99.90
42261;DHT22;27926;48.062;7.474;2023-01-16T12:33:33;7.30;99.90
42261;DHT22;27926;48.062;7.474;2023-01-16T12:36:12;7.40;99.90
42261;DHT22;27926;48.062;7.474;2023-01-16T12:38:50;7.30;99.90
42261;DHT22;27926;48.062;7.474;2023-01-16T12:41:23;7.30;99.90
42261;DHT22;27926;48.062;7.474;2023-01-16T12:44:16;7.30;99.90
42261;DHT22;27926;48.062;7.474;2023-01-16T12:46:59;7.20;99.90
42261;DHT22;27926;48.062;7.474;2023-01-16T12:59:47;7.80;99.90
42261;DHT22;27926;48.062;7.474;2023-01-16T13:04:38;8.60;99.90
42261;DHT22;27926;48.062;7.474;2023-01-16T13:07:04;8.40;99.90
42261;DHT22;27926;48.062;7.474;2023-01-16T13:12:17;7.70;99.90
42261;DHT22;27926;48.062;7.474;2023-01-16T13:15:02;7.70;99.90
42261;DHT22;27926;48.062;7.474;2023-01-16T13:17:35;7.80;99.90
42261;DHT22;27926;48.062;7.474;2023-01-16T13:20:02;7.90;99.90
42261;DHT22;27926;48.062;7.474;2023-01-16T13:22:30;7.90;99.90
42261;DHT22;27926;48.062;7.474;2023-01-16T13:24:59;8.70;99.90
42261;DHT22;27926;48.062;7.474;2023-01-16T13:27:40;7.90;99.90
42261;DHT22;27926;48.062;7.474;2023-01-16T13:30:12;7.90;99.90
42261;DHT22;27926;48.062;7.474;2023-01-16T13:32:38;7.70;99.90
42261;DHT22;27926;48.062;7.474;2023-01-16T13:35:16;8.10;99.90
42261;DHT22;27926;48.062;7.474;2023-01-16T13:42:39;7.20;99.90
42261;DHT22;27926;48.062;7.474;2023-01-16T13:45:06;7.20;99.90
42261;DHT22;27926;48.062;7.474;2023-01-16T13:47:51;7.20;99.90
42261;DHT22;27926;48.062;7.474;2023-01-16T13:52:41;7.40;99.90
42261;DHT22;27926;48.062;7.474;2023-01-16T13:55:06;7.00;99.90
42261;DHT22;27926;48.062;7.474;2023-01-16T13:57:31;6.90;99.90
42261;DHT22;27926;48.062;7.474;2023-01-16T13:59:57;7.20;99.90
42261;DHT22;27926;48.062;7.474;2023-01-16T14:07:45;6.80;99.90
42261;DHT22;27926;48.062;7.474;2023-01-16T14:11:13;7.90;99.90
42261;DHT22;27926;48.062;7.474;2023-01-16T14:15:52;6.50;99.90
42261;DHT22;27926;48.062;7.474;2023-01-16T14:18:36;6.60;99.90
42261;DHT22;27926;48.062;7.474;2023-01-16T14:21:02;6.90;99.90
42261;DHT22;27926;48.062;7.474;2023-01-16T14:23:29;6.40;99.90
42261;DHT22;27926;48.062;7.474;2023-01-16T14:26:16;7.20;99.90
42261;DHT22;27926;48.062;7.474;2023-01-16T14:28:45;6.40;99.90
42261;DHT22;27926;48.062;7.474;2023-01-16T14:31:18;7.00;99.90
42261;DHT22;27926;48.062;7.474;2023-01-16T14:33:43;6.70;99.90
42261;DHT22;27926;48.062;7.474;2023-01-16T14:36:10;6.20;99.90
42261;DHT22;27926;48.062;7.474;2023-01-16T14:38:37;6.10;99.90
42261;DHT22;27926;48.062;7.474;2023-01-16T14:41:02;7.20;99.90
42261;DHT22;27926;48.062;7.474;2023-01-16T14:46:52;6.00;99.90
42261;DHT22;27926;48.062;7.474;2023-01-16T14:55:22;5.80;99.90
42261;DHT22;27926;48.062;7.474;2023-01-16T14:57:47;5.80;99.90
42261;DHT22;27926;48.062;7.474;2023-01-16T15:00:14;5.70;99.90
42261;DHT22;27926;48.062;7.474;2023-01-16T15:02:52;5.70;99.90
42261;DHT22;27926;48.062;7.474;2023-01-16T15:05:20;5.60;99.90
42261;DHT22;27926;48.062;7.474;2023-01-16T15:07:50;6.00;99.90
42261;DHT22;27926;48.062;7.474;2023-01-16T15:10:17;5.60;99.90
42261;DHT22;27926;48.062;7.474;2023-01-16T15:12:43;5.70;99.90
42261;DHT22;27926;48.062;7.474;2023-01-16T15:18:02;5.50;99.90
42261;DHT22;27926;48.062;7.474;2023-01-16T15:20:45;5.50;99.90
42261;DHT22;27926;48.062;7.474;2023-01-16T15:23:33;5.50;99.90
42261;DHT22;27926;48.062;7.474;2023-01-16T15:31:05;5.50;99.90
42261;DHT22;27926;48.062;7.474;2023-01-16T15:33:31;6.50;99.90
42261;DHT22;27926;48.062;7.474;2023-01-16T15:36:33;5.50;99.90
42261;DHT22;27926;48.062;7.474;2023-01-16T15:38:59;5.50;99.90
42261;DHT22;27926;48.062;7.474;2023-01-16T15:41:31;5.50;99.90
42261;DHT22;27926;48.062;7.474;2023-01-16T15:44:15;5.50;99.90
42261;DHT22;27926;48.062;7.474;2023-01-16T15:47:02;6.50;99.90
42261;DHT22;27926;48.062;7.474;2023-01-16T15:49:31;5.50;99.90
42261;DHT22;27926;48.062;7.474;2023-01-16T15:51:59;5.40;99.90
42261;DHT22;27926;48.062;7.474;2023-01-16T15:54:24;5.40;99.90
42261;DHT22;27926;48.062;7.474;2023-01-16T15:56:49;6.30;99.90
42261;DHT22;27926;48.062;7.474;2023-01-16T15:59:48;5.60;99.90
42261;DHT22;27926;48.062;7.474;2023-01-16T16:02:24;5.40;99.90
42261;DHT22;27926;48.062;7.474;2023-01-16T16:04:53;5.40;99.90
42261;DHT22;27926;48.062;7.474;2023-01-16T16:07:19;5.70;99.90
42261;DHT22;27926;48.062;7.474;2023-01-16T16:09:44;5.60;99.90
42261;DHT22;27926;48.062;7.474;2023-01-16T16:12:10;6.30;99.90
42261;DHT22;27926;48.062;7.474;2023-01-16T16:14:34;6.60;99.90
42261;DHT22;27926;48.062;7.474;2023-01-16T16:17:22;6.40;99.90
42261;DHT22;27926;48.062;7.474;2023-01-16T16:22:53;5.20;99.90
42261;DHT22;27926;48.062;7.474;2023-01-16T16:25:30;5.20;99.90
42261;DHT22;27926;48.062;7.474;2023-01-16T16:27:56;5.20;99.90
42261;DHT22;27926;48.062;7.474;2023-01-16T16:30:25;5.70;99.90
42261;DHT22;27926;48.062;7.474;2023-01-16T16:32:50;5.00;99.90
42261;DHT22;27926;48.062;7.474;2023-01-16T16:35:32;6.00;99.90
42261;DHT22;27926;48.062;7.474;2023-01-16T16:37:57;5.00;99.90
42261;DHT22;27926;48.062;7.474;2023-01-16T16:40:21;5.40;99.90
42261;DHT22;27926;48.062;7.474;2023-01-16T16:45:11;5.40;99.90
42261;DHT22;27926;48.062;7.474;2023-01-16T16:47:45;5.00;99.90
42261;DHT22;27926;48.062;7.474;2023-01-16T16:52:51;4.90;99.90
42261;DHT22;27926;48.062;7.474;2023-01-16T16:55:26;5.70;99.90
42261;DHT22;27926;48.062;7.474;2023-01-16T16:57:52;4.90;99.90
42261;DHT22;27926;48.062;7.474;2023-01-16T17:00:17;6.40;99.90
42261;DHT22;27926;48.062;7.474;2023-01-16T17:02:42;4.90;99.90
42261;DHT22;27926;48.062;7.474;2023-01-16T17:05:11;6.10;99.90
42261;DHT22;27926;48.062;7.474;2023-01-16T17:07:35;4.90;99.90
42261;DHT22;27926;48.062;7.474;2023-01-16T17:10:00;5.30;99.90
42261;DHT22;27926;48.062;7.474;2023-01-16T17:12:24;6.10;99.90
42261;DHT22;27926;48.062;7.474;2023-01-16T17:14:49;5.90;99.90
42261;DHT22;27926;48.062;7.474;2023-01-16T17:17:17;6.30;99.90
42261;DHT22;27926;48.062;7.474;2023-01-16T17:19:42;5.80;99.90
42261;DHT22;27926;48.062;7.474;2023-01-16T17:22:08;6.10;99.90
42261;DHT22;27926;48.062;7.474;2023-01-16T17:24:32;6.00;99.90
42261;DHT22;27926;48.062;7.474;2023-01-16T17:26:57;4.90;99.90
42261;DHT22;27926;48.062;7.474;2023-01-16T17:29:21;6.20;99.90
42261;DHT22;27926;48.062;7.474;2023-01-16T17:31:46;5.30;99.90
42261;DHT22;27926;48.062;7.474;2023-01-16T17:34:14;6.20;99.90
42261;DHT22;27926;48.062;7.474;2023-01-16T17:36:39;4.90;99.90
42261;DHT22;27926;48.062;7.474;2023-01-16T17:39:04;4.90;99.90
42261;DHT22;27926;48.062;7.474;2023-01-16T17:41:28;5.90;99.90
42261;DHT22;27926;48.062;7.474;2023-01-16T17:44:00;6.30;99.90
42261;DHT22;27926;48.062;7.474;2023-01-16T17:46:42;4.80;99.90
42261;DHT22;27926;48.062;7.474;2023-01-16T17:49:07;4.90;99.90
42261;DHT22;27926;48.062;7.474;2023-01-16T17:51:31;6.20;99.90
42261;DHT22;27926;48.062;7.474;2023-01-16T17:53:56;6.00;99.90
42261;DHT22;27926;48.062;7.474;2023-01-16T17:56:20;5.90;99.90
42261;DHT22;27926;48.062;7.474;2023-01-16T17:58:45;5.70;99.90
42261;DHT22;27926;48.062;7.474;2023-01-16T18:01:11;5.40;99.90
42261;DHT22;27926;48.062;7.474;2023-01-16T18:03:36;6.40;99.90
42261;DHT22;27926;48.062;7.474;2023-01-16T18:06:05;5.80;99.90
42261;DHT22;27926;48.062;7.474;2023-01-16T18:08:30;5.10;99.90
42261;DHT22;27926;48.062;7.474;2023-01-16T18:10:54;5.10;99.90
42261;DHT22;27926;48.062;7.474;2023-01-16T18:13:19;5.20;99.90
42261;DHT22;27926;48.062;7.474;2023-01-16T18:16:03;6.00;99.90
42261;DHT22;27926;48.062;7.474;2023-01-16T18:18:47;6.30;99.90
42261;DHT22;27926;48.062;7.474;2023-01-16T18:21:12;5.30;99.90
42261;DHT22;27926;48.062;7.474;2023-01-16T18:23:55;6.10;99.90
42261;DHT22;27926;48.062;7.474;2023-01-16T18:26:20;5.20;99.90